sensor_id;sensor_type;location;lat;lon;timestamp;P1;durP1;ratioP1;P2;durP2;ratioP2
77324;SDS011;66387;53.440;10.390;2023-01-25T00:00:41;22.03;;;12.80;;
77324;SDS011;66387;53.440;10.390;2023-01-25T00:03:06;22.80;;;13.10;;
77324;SDS011;66387;53.440;10.390;2023-01-25T00:05:31;21.07;;;12.70;;
77324;SDS011;66387;53.440;10.390;2023-01-25T00:07:56;29.17;;;14.17;;
77324;SDS011;66387;53.440;10.390;2023-01-25T00:10:22;23.00;;;13.17;;
77324;SDS011;66387;53.440;10.390;2023-01-25T00:12:47;21.67;;;11.50;;
77324;SDS011;66387;53.440;10.390;2023-01-25T00:15:12;24.30;;;11.85;;
77324;SDS011;66387;53.440;10.390;2023-01-25T00:17:38;19.90;;;10.35;;
77324;SDS011;66387;53.440;10.390;2023-01-25T00:20:04;15.97;;;10.60;;
77324;SDS011;66387;53.440;10.390;2023-01-25T00:22:29;19.27;;;10.95;;
77324;SDS011;66387;53.440;10.390;2023-01-25T00:24:55;19.93;;;11.07;;
77324;SDS011;66387;53.440;10.390;2023-01-25T00:27:20;18.87;;;9.73;;
77324;SDS011;66387;53.440;10.390;2023-01-25T00:29:45;18.33;;;9.30;;
77324;SDS011;66387;53.440;10.390;2023-01-25T00:34:48;21.55;;;10.65;;
77324;SDS011;66387;53.440;10.390;2023-01-25T00:37:18;19.00;;;9.68;;
77324;SDS011;66387;53.440;10.390;2023-01-25T00:39:52;17.98;;;11.13;;
77324;SDS011;66387;53.440;10.390;2023-01-25T00:42:18;21.30;;;11.40;;
77324;SDS011;66387;53.440;10.390;2023-01-25T00:44:44;17.55;;;10.35;;
77324;SDS011;66387;53.440;10.390;2023-01-25T00:47:10;19.73;;;10.18;;
77324;SDS011;66387;53.440;10.390;2023-01-25T00:49:36;19.95;;;10.70;;
77324;SDS011;66387;53.440;10.390;2023-01-25T00:52:01;21.58;;;10.95;;
77324;SDS011;66387;53.440;10.390;2023-01-25T00:54:27;17.38;;;9.63;;
77324;SDS011;66387;53.440;10.390;2023-01-25T00:56:55;18.52;;;9.43;;
77324;SDS011;66387;53.440;10.390;2023-01-25T00:59:24;23.50;;;11.43;;
77324;SDS011;66387;53.440;10.390;2023-01-25T01:01:50;20.50;;;10.65;;
77324;SDS011;66387;53.440;10.390;2023-01-25T01:04:16;19.75;;;10.00;;
77324;SDS011;66387;53.440;10.390;2023-01-25T01:06:42;20.48;;;9.88;;
77324;SDS011;66387;53.440;10.390;2023-01-25T01:09:10;20.60;;;10.80;;
77324;SDS011;66387;53.440;10.390;2023-01-25T01:11:37;17.08;;;8.50;;
77324;SDS011;66387;53.440;10.390;2023-01-25T01:14:03;16.50;;;10.63;;
77324;SDS011;66387;53.440;10.390;2023-01-25T01:16:28;23.37;;;11.17;;
77324;SDS011;66387;53.440;10.390;2023-01-25T01:18:53;23.17;;;10.90;;
77324;SDS011;66387;53.440;10.390;2023-01-25T01:21:18;23.47;;;11.03;;
77324;SDS011;66387;53.440;10.390;2023-01-25T01:23:44;22.10;;;10.43;;
77324;SDS011;66387;53.440;10.390;2023-01-25T01:26:11;17.52;;;9.02;;
77324;SDS011;66387;53.440;10.390;2023-01-25T01:28:37;24.13;;;10.50;;
77324;SDS011;66387;53.440;10.390;2023-01-25T01:31:13;22.35;;;10.40;;
77324;SDS011;66387;53.440;10.390;2023-01-25T01:33:43;24.15;;;10.77;;
77324;SDS011;66387;53.440;10.390;2023-01-25T01:36:10;20.45;;;9.73;;
77324;SDS011;66387;53.440;10.390;2023-01-25T01:38:37;24.83;;;12.13;;
77324;SDS011;66387;53.440;10.390;2023-01-25T01:41:02;23.17;;;11.13;;
77324;SDS011;66387;53.440;10.390;2023-01-25T01:43:28;21.02;;;9.45;;
77324;SDS011;66387;53.440;10.390;2023-01-25T01:45:55;22.63;;;10.52;;
77324;SDS011;66387;53.440;10.390;2023-01-25T01:48:30;19.98;;;8.60;;
77324;SDS011;66387;53.440;10.390;2023-01-25T01:51:16;23.05;;;10.85;;
77324;SDS011;66387;53.440;10.390;2023-01-25T01:56:58;19.55;;;9.60;;
77324;SDS011;66387;53.440;10.390;2023-01-25T01:59:32;18.30;;;9.77;;
77324;SDS011;66387;53.440;10.390;2023-01-25T02:02:08;21.15;;;9.52;;
77324;SDS011;66387;53.440;10.390;2023-01-25T02:04:33;22.60;;;10.20;;
77324;SDS011;66387;53.440;10.390;2023-01-25T02:07:07;23.83;;;11.63;;
77324;SDS011;66387;53.440;10.390;2023-01-25T02:09:38;25.25;;;10.40;;
77324;SDS011;66387;53.440;10.390;2023-01-25T02:12:04;19.03;;;10.90;;
77324;SDS011;66387;53.440;10.390;2023-01-25T02:14:31;19.55;;;10.30;;
77324;SDS011;66387;53.440;10.390;2023-01-25T02:16:58;17.83;;;9.98;;
77324;SDS011;66387;53.440;10.390;2023-01-25T02:19:36;20.73;;;11.52;;
77324;SDS011;66387;53.440;10.390;2023-01-25T02:22:09;19.60;;;10.13;;
77324;SDS011;66387;53.440;10.390;2023-01-25T02:24:40;15.75;;;9.43;;
77324;SDS011;66387;53.440;10.390;2023-01-25T02:27:13;17.50;;;9.75;;
77324;SDS011;66387;53.440;10.390;2023-01-25T02:29:38;19.57;;;11.10;;
77324;SDS011;66387;53.440;10.390;2023-01-25T02:32:05;18.02;;;9.20;;
77324;SDS011;66387;53.440;10.390;2023-01-25T02:34:30;16.67;;;8.98;;
77324;SDS011;66387;53.440;10.390;2023-01-25T02:36:56;17.63;;;9.60;;
77324;SDS011;66387;53.440;10.390;2023-01-25T02:39:21;19.30;;;9.63;;
77324;SDS011;66387;53.440;10.390;2023-01-25T02:41:50;17.13;;;9.18;;
77324;SDS011;66387;53.440;10.390;2023-01-25T02:44:17;16.20;;;8.45;;
77324;SDS011;66387;53.440;10.390;2023-01-25T02:46:45;14.77;;;9.10;;
77324;SDS011;66387;53.440;10.390;2023-01-25T02:49:12;16.30;;;9.27;;
77324;SDS011;66387;53.440;10.390;2023-01-25T02:51:38;18.45;;;10.05;;
77324;SDS011;66387;53.440;10.390;2023-01-25T02:54:06;17.38;;;8.75;;
77324;SDS011;66387;53.440;10.390;2023-01-25T02:56:34;12.52;;;7.30;;
77324;SDS011;66387;53.440;10.390;2023-01-25T02:58:59;16.27;;;8.75;;
77324;SDS011;66387;53.440;10.390;2023-01-25T03:01:29;13.27;;;7.05;;
77324;SDS011;66387;53.440;10.390;2023-01-25T03:03:55;10.63;;;7.22;;
77324;SDS011;66387;53.440;10.390;2023-01-25T03:06:20;14.33;;;7.77;;
77324;SDS011;66387;53.440;10.390;2023-01-25T03:08:45;12.70;;;7.20;;
77324;SDS011;66387;53.440;10.390;2023-01-25T03:11:10;11.60;;;6.63;;
77324;SDS011;66387;53.440;10.390;2023-01-25T03:13:36;12.33;;;7.20;;
77324;SDS011;66387;53.440;10.390;2023-01-25T03:16:02;9.55;;;6.80;;
77324;SDS011;66387;53.440;10.390;2023-01-25T03:18:30;11.98;;;6.78;;
77324;SDS011;66387;53.440;10.390;2023-01-25T03:20:58;11.90;;;7.78;;
77324;SDS011;66387;53.440;10.390;2023-01-25T03:23:32;14.20;;;7.05;;
77324;SDS011;66387;53.440;10.390;2023-01-25T03:26:17;12.43;;;7.03;;
77324;SDS011;66387;53.440;10.390;2023-01-25T03:31:10;14.45;;;7.88;;
77324;SDS011;66387;53.440;10.390;2023-01-25T03:33:37;12.68;;;7.38;;
77324;SDS011;66387;53.440;10.390;2023-01-25T03:36:03;12.13;;;7.70;;
77324;SDS011;66387;53.440;10.390;2023-01-25T03:38:29;12.55;;;7.78;;
77324;SDS011;66387;53.440;10.390;2023-01-25T03:40:55;13.15;;;7.43;;
77324;SDS011;66387;53.440;10.390;2023-01-25T03:43:21;13.50;;;7.35;;
77324;SDS011;66387;53.440;10.390;2023-01-25T03:45:50;14.73;;;9.10;;
77324;SDS011;66387;53.440;10.390;2023-01-25T03:48:17;14.13;;;7.10;;
77324;SDS011;66387;53.440;10.390;2023-01-25T03:50:42;15.47;;;8.90;;
77324;SDS011;66387;53.440;10.390;2023-01-25T03:53:13;13.13;;;7.40;;
77324;SDS011;66387;53.440;10.390;2023-01-25T03:55:51;18.23;;;8.63;;
77324;SDS011;66387;53.440;10.390;2023-01-25T03:58:16;14.77;;;9.40;;
77324;SDS011;66387;53.440;10.390;2023-01-25T04:00:41;13.13;;;8.07;;
77324;SDS011;66387;53.440;10.390;2023-01-25T04:03:06;15.13;;;8.43;;
77324;SDS011;66387;53.440;10.390;2023-01-25T04:05:32;14.53;;;9.60;;
77324;SDS011;66387;53.440;10.390;2023-01-25T04:07:57;16.73;;;8.50;;
77324;SDS011;66387;53.440;10.390;2023-01-25T04:10:22;15.10;;;9.00;;
77324;SDS011;66387;53.440;10.390;2023-01-25T04:12:47;14.63;;;8.90;;
77324;SDS011;66387;53.440;10.390;2023-01-25T04:15:13;16.97;;;8.90;;
77324;SDS011;66387;53.440;10.390;2023-01-25T04:17:38;17.70;;;8.30;;
77324;SDS011;66387;53.440;10.390;2023-01-25T04:20:03;18.37;;;10.80;;
77324;SDS011;66387;53.440;10.390;2023-01-25T04:22:29;14.80;;;9.48;;
77324;SDS011;66387;53.440;10.390;2023-01-25T04:24:54;14.23;;;10.00;;
77324;SDS011;66387;53.440;10.390;2023-01-25T04:27:19;13.60;;;9.00;;
77324;SDS011;66387;53.440;10.390;2023-01-25T04:29:45;15.83;;;9.03;;
77324;SDS011;66387;53.440;10.390;2023-01-25T04:32:10;14.50;;;8.97;;
77324;SDS011;66387;53.440;10.390;2023-01-25T04:34:35;15.60;;;9.43;;
77324;SDS011;66387;53.440;10.390;2023-01-25T04:37:00;16.23;;;8.73;;
77324;SDS011;66387;53.440;10.390;2023-01-25T04:39:26;14.90;;;9.37;;
77324;SDS011;66387;53.440;10.390;2023-01-25T04:41:51;16.90;;;10.17;;
77324;SDS011;66387;53.440;10.390;2023-01-25T04:44:16;16.47;;;9.67;;
77324;SDS011;66387;53.440;10.390;2023-01-25T04:46:41;14.50;;;9.57;;
77324;SDS011;66387;53.440;10.390;2023-01-25T04:49:07;13.73;;;9.70;;
77324;SDS011;66387;53.440;10.390;2023-01-25T04:51:32;13.90;;;9.07;;
77324;SDS011;66387;53.440;10.390;2023-01-25T04:53:57;12.70;;;7.23;;
77324;SDS011;66387;53.440;10.390;2023-01-25T04:56:22;16.43;;;8.23;;
77324;SDS011;66387;53.440;10.390;2023-01-25T04:58:48;13.17;;;8.90;;
77324;SDS011;66387;53.440;10.390;2023-01-25T05:01:13;13.63;;;8.77;;
77324;SDS011;66387;53.440;10.390;2023-01-25T05:03:38;12.37;;;7.90;;
77324;SDS011;66387;53.440;10.390;2023-01-25T05:06:03;14.03;;;8.33;;
77324;SDS011;66387;53.440;10.390;2023-01-25T05:08:29;13.38;;;8.43;;
77324;SDS011;66387;53.440;10.390;2023-01-25T05:10:54;12.07;;;8.00;;
77324;SDS011;66387;53.440;10.390;2023-01-25T05:13:19;14.93;;;8.70;;
77324;SDS011;66387;53.440;10.390;2023-01-25T05:15:45;15.55;;;9.90;;
77324;SDS011;66387;53.440;10.390;2023-01-25T05:18:10;13.15;;;8.63;;
77324;SDS011;66387;53.440;10.390;2023-01-25T05:20:35;14.83;;;9.27;;
77324;SDS011;66387;53.440;10.390;2023-01-25T05:23:00;15.47;;;8.17;;
77324;SDS011;66387;53.440;10.390;2023-01-25T05:25:26;13.50;;;8.57;;
77324;SDS011;66387;53.440;10.390;2023-01-25T05:28:10;12.95;;;8.52;;
77324;SDS011;66387;53.440;10.390;2023-01-25T05:30:35;12.53;;;8.67;;
77324;SDS011;66387;53.440;10.390;2023-01-25T05:33:00;13.97;;;8.60;;
77324;SDS011;66387;53.440;10.390;2023-01-25T05:35:26;15.10;;;8.63;;
77324;SDS011;66387;53.440;10.390;2023-01-25T05:37:55;15.82;;;8.75;;
77324;SDS011;66387;53.440;10.390;2023-01-25T05:40:21;13.00;;;8.73;;
77324;SDS011;66387;53.440;10.390;2023-01-25T05:42:52;13.07;;;7.70;;
77324;SDS011;66387;53.440;10.390;2023-01-25T05:45:18;13.55;;;8.02;;
77324;SDS011;66387;53.440;10.390;2023-01-25T05:47:43;14.43;;;8.07;;
77324;SDS011;66387;53.440;10.390;2023-01-25T05:50:09;10.63;;;7.80;;
77324;SDS011;66387;53.440;10.390;2023-01-25T05:52:35;11.82;;;7.75;;
77324;SDS011;66387;53.440;10.390;2023-01-25T05:55:00;12.63;;;8.07;;
77324;SDS011;66387;53.440;10.390;2023-01-25T05:57:25;12.67;;;7.70;;
77324;SDS011;66387;53.440;10.390;2023-01-25T05:59:52;14.05;;;7.95;;
77324;SDS011;66387;53.440;10.390;2023-01-25T06:02:18;13.30;;;8.77;;
77324;SDS011;66387;53.440;10.390;2023-01-25T06:04:43;12.77;;;8.27;;
77324;SDS011;66387;53.440;10.390;2023-01-25T06:07:08;14.53;;;8.07;;
77324;SDS011;66387;53.440;10.390;2023-01-25T06:09:33;17.30;;;9.63;;
77324;SDS011;66387;53.440;10.390;2023-01-25T06:11:59;12.73;;;8.83;;
77324;SDS011;66387;53.440;10.390;2023-01-25T06:14:24;12.73;;;8.63;;
77324;SDS011;66387;53.440;10.390;2023-01-25T06:16:49;13.93;;;9.10;;
77324;SDS011;66387;53.440;10.390;2023-01-25T06:19:14;14.03;;;8.23;;
77324;SDS011;66387;53.440;10.390;2023-01-25T06:21:40;13.52;;;8.98;;
77324;SDS011;66387;53.440;10.390;2023-01-25T06:24:05;16.50;;;9.63;;
77324;SDS011;66387;53.440;10.390;2023-01-25T06:26:30;11.65;;;7.88;;
77324;SDS011;66387;53.440;10.390;2023-01-25T06:28:56;14.57;;;8.23;;
77324;SDS011;66387;53.440;10.390;2023-01-25T06:31:21;12.83;;;8.63;;
77324;SDS011;66387;53.440;10.390;2023-01-25T06:33:47;13.10;;;9.37;;
77324;SDS011;66387;53.440;10.390;2023-01-25T06:36:14;15.68;;;8.82;;
77324;SDS011;66387;53.440;10.390;2023-01-25T06:38:41;16.42;;;9.50;;
77324;SDS011;66387;53.440;10.390;2023-01-25T06:41:07;14.13;;;8.80;;
77324;SDS011;66387;53.440;10.390;2023-01-25T06:43:34;17.90;;;11.48;;
77324;SDS011;66387;53.440;10.390;2023-01-25T06:46:01;12.35;;;8.68;;
77324;SDS011;66387;53.440;10.390;2023-01-25T06:48:28;14.10;;;8.90;;
77324;SDS011;66387;53.440;10.390;2023-01-25T06:50:58;15.05;;;9.63;;
77324;SDS011;66387;53.440;10.390;2023-01-25T06:53:26;14.43;;;8.32;;
77324;SDS011;66387;53.440;10.390;2023-01-25T06:56:03;14.43;;;9.23;;
77324;SDS011;66387;53.440;10.390;2023-01-25T06:58:30;16.25;;;9.50;;
77324;SDS011;66387;53.440;10.390;2023-01-25T07:01:06;17.35;;;9.98;;
77324;SDS011;66387;53.440;10.390;2023-01-25T07:03:35;16.65;;;9.27;;
77324;SDS011;66387;53.440;10.390;2023-01-25T07:06:01;12.43;;;8.93;;
77324;SDS011;66387;53.440;10.390;2023-01-25T07:08:28;17.17;;;10.65;;
77324;SDS011;66387;53.440;10.390;2023-01-25T07:11:04;14.23;;;9.52;;
77324;SDS011;66387;53.440;10.390;2023-01-25T07:13:33;14.65;;;10.63;;
77324;SDS011;66387;53.440;10.390;2023-01-25T07:15:59;16.98;;;10.25;;
77324;SDS011;66387;53.440;10.390;2023-01-25T07:18:26;17.67;;;9.75;;
77324;SDS011;66387;53.440;10.390;2023-01-25T07:20:53;15.35;;;9.68;;
77324;SDS011;66387;53.440;10.390;2023-01-25T07:23:19;15.15;;;9.05;;
77324;SDS011;66387;53.440;10.390;2023-01-25T07:25:48;14.50;;;9.60;;
77324;SDS011;66387;53.440;10.390;2023-01-25T07:28:15;18.30;;;10.88;;
77324;SDS011;66387;53.440;10.390;2023-01-25T07:30:41;17.20;;;10.15;;
77324;SDS011;66387;53.440;10.390;2023-01-25T07:33:07;14.07;;;9.13;;
77324;SDS011;66387;53.440;10.390;2023-01-25T07:35:33;12.85;;;9.43;;
77324;SDS011;66387;53.440;10.390;2023-01-25T07:37:59;15.40;;;9.40;;
77324;SDS011;66387;53.440;10.390;2023-01-25T07:40:24;15.03;;;10.03;;
77324;SDS011;66387;53.440;10.390;2023-01-25T07:42:50;13.75;;;9.43;;
77324;SDS011;66387;53.440;10.390;2023-01-25T07:45:16;17.17;;;10.00;;
77324;SDS011;66387;53.440;10.390;2023-01-25T07:47:42;16.13;;;9.60;;
77324;SDS011;66387;53.440;10.390;2023-01-25T07:50:07;20.67;;;10.23;;
77324;SDS011;66387;53.440;10.390;2023-01-25T07:52:33;15.07;;;10.20;;
77324;SDS011;66387;53.440;10.390;2023-01-25T07:54:58;14.03;;;9.03;;
77324;SDS011;66387;53.440;10.390;2023-01-25T07:57:24;14.17;;;9.37;;
77324;SDS011;66387;53.440;10.390;2023-01-25T07:59:49;22.05;;;10.82;;
77324;SDS011;66387;53.440;10.390;2023-01-25T08:02:14;16.33;;;10.43;;
77324;SDS011;66387;53.440;10.390;2023-01-25T08:04:40;14.27;;;9.70;;
77324;SDS011;66387;53.440;10.390;2023-01-25T08:07:06;16.83;;;10.88;;
77324;SDS011;66387;53.440;10.390;2023-01-25T08:09:32;17.95;;;9.35;;
77324;SDS011;66387;53.440;10.390;2023-01-25T08:11:57;16.45;;;9.60;;
77324;SDS011;66387;53.440;10.390;2023-01-25T08:14:22;17.37;;;10.93;;
77324;SDS011;66387;53.440;10.390;2023-01-25T08:16:48;19.25;;;10.65;;
77324;SDS011;66387;53.440;10.390;2023-01-25T08:19:14;15.32;;;9.65;;
77324;SDS011;66387;53.440;10.390;2023-01-25T08:21:39;16.73;;;10.38;;
77324;SDS011;66387;53.440;10.390;2023-01-25T08:24:05;17.67;;;10.45;;
77324;SDS011;66387;53.440;10.390;2023-01-25T08:26:32;17.60;;;10.60;;
77324;SDS011;66387;53.440;10.390;2023-01-25T08:28:58;14.13;;;8.30;;
77324;SDS011;66387;53.440;10.390;2023-01-25T08:31:25;18.17;;;10.63;;
77324;SDS011;66387;53.440;10.390;2023-01-25T08:33:52;17.23;;;11.00;;
77324;SDS011;66387;53.440;10.390;2023-01-25T08:36:18;17.88;;;11.45;;
77324;SDS011;66387;53.440;10.390;2023-01-25T08:38:44;20.58;;;11.10;;
77324;SDS011;66387;53.440;10.390;2023-01-25T08:41:11;19.38;;;12.57;;
77324;SDS011;66387;53.440;10.390;2023-01-25T08:43:40;20.58;;;10.57;;
77324;SDS011;66387;53.440;10.390;2023-01-25T08:46:06;17.80;;;10.75;;
77324;SDS011;66387;53.440;10.390;2023-01-25T08:48:31;17.98;;;11.18;;
77324;SDS011;66387;53.440;10.390;2023-01-25T08:50:58;20.35;;;11.73;;
77324;SDS011;66387;53.440;10.390;2023-01-25T08:53:26;21.33;;;11.55;;
77324;SDS011;66387;53.440;10.390;2023-01-25T08:55:51;19.15;;;12.32;;
77324;SDS011;66387;53.440;10.390;2023-01-25T08:58:17;19.83;;;12.37;;
77324;SDS011;66387;53.440;10.390;2023-01-25T09:00:45;14.88;;;9.73;;
77324;SDS011;66387;53.440;10.390;2023-01-25T09:03:10;20.47;;;11.33;;
77324;SDS011;66387;53.440;10.390;2023-01-25T09:05:36;19.57;;;9.43;;
77324;SDS011;66387;53.440;10.390;2023-01-25T09:08:04;16.25;;;11.25;;
77324;SDS011;66387;53.440;10.390;2023-01-25T09:10:32;16.85;;;9.68;;
77324;SDS011;66387;53.440;10.390;2023-01-25T09:12:58;22.52;;;11.40;;
77324;SDS011;66387;53.440;10.390;2023-01-25T09:15:24;19.10;;;10.55;;
77324;SDS011;66387;53.440;10.390;2023-01-25T09:17:50;18.50;;;10.93;;
77324;SDS011;66387;53.440;10.390;2023-01-25T09:20:19;19.83;;;12.75;;
77324;SDS011;66387;53.440;10.390;2023-01-25T09:22:45;20.48;;;10.90;;
77324;SDS011;66387;53.440;10.390;2023-01-25T09:25:10;14.80;;;9.77;;
77324;SDS011;66387;53.440;10.390;2023-01-25T09:27:36;20.75;;;11.20;;
77324;SDS011;66387;53.440;10.390;2023-01-25T09:30:02;16.52;;;10.05;;
77324;SDS011;66387;53.440;10.390;2023-01-25T09:32:28;17.58;;;10.20;;
77324;SDS011;66387;53.440;10.390;2023-01-25T09:34:53;19.70;;;11.53;;
77324;SDS011;66387;53.440;10.390;2023-01-25T09:37:19;15.77;;;10.17;;
77324;SDS011;66387;53.440;10.390;2023-01-25T09:39:44;16.07;;;10.33;;
77324;SDS011;66387;53.440;10.390;2023-01-25T09:45:14;14.43;;;9.30;;
77324;SDS011;66387;53.440;10.390;2023-01-25T09:47:56;11.48;;;8.50;;
77324;SDS011;66387;53.440;10.390;2023-01-25T09:53:51;10.65;;;7.95;;
77324;SDS011;66387;53.440;10.390;2023-01-25T09:56:30;13.68;;;8.48;;
77324;SDS011;66387;53.440;10.390;2023-01-25T09:59:01;12.63;;;9.77;;
77324;SDS011;66387;53.440;10.390;2023-01-25T10:01:45;15.32;;;10.60;;
77324;SDS011;66387;53.440;10.390;2023-01-25T10:04:16;16.75;;;9.63;;
77324;SDS011;66387;53.440;10.390;2023-01-25T10:06:46;13.77;;;8.27;;
77324;SDS011;66387;53.440;10.390;2023-01-25T10:09:23;14.77;;;8.77;;
77324;SDS011;66387;53.440;10.390;2023-01-25T10:11:57;12.98;;;9.13;;
77324;SDS011;66387;53.440;10.390;2023-01-25T10:14:28;15.55;;;10.35;;
77324;SDS011;66387;53.440;10.390;2023-01-25T10:17:02;13.95;;;8.45;;
77324;SDS011;66387;53.440;10.390;2023-01-25T10:22:16;13.85;;;8.98;;
77324;SDS011;66387;53.440;10.390;2023-01-25T10:31:25;12.27;;;7.90;;
77324;SDS011;66387;53.440;10.390;2023-01-25T10:33:50;13.27;;;8.40;;
77324;SDS011;66387;53.440;10.390;2023-01-25T10:36:20;12.07;;;8.52;;
77324;SDS011;66387;53.440;10.390;2023-01-25T10:38:51;15.45;;;10.23;;
77324;SDS011;66387;53.440;10.390;2023-01-25T10:41:36;15.63;;;9.63;;
77324;SDS011;66387;53.440;10.390;2023-01-25T10:44:08;14.25;;;8.27;;
77324;SDS011;66387;53.440;10.390;2023-01-25T10:49:46;15.77;;;8.70;;
77324;SDS011;66387;53.440;10.390;2023-01-25T10:52:19;17.17;;;9.80;;
77324;SDS011;66387;53.440;10.390;2023-01-25T10:54:46;16.13;;;10.43;;
77324;SDS011;66387;53.440;10.390;2023-01-25T10:57:18;15.60;;;11.18;;
77324;SDS011;66387;53.440;10.390;2023-01-25T10:59:45;14.73;;;8.85;;
77324;SDS011;66387;53.440;10.390;2023-01-25T11:02:47;16.92;;;10.18;;
77324;SDS011;66387;53.440;10.390;2023-01-25T11:05:23;14.57;;;9.70;;
77324;SDS011;66387;53.440;10.390;2023-01-25T11:07:49;14.63;;;10.18;;
77324;SDS011;66387;53.440;10.390;2023-01-25T11:15:44;16.88;;;10.38;;
77324;SDS011;66387;53.440;10.390;2023-01-25T11:18:30;18.25;;;10.90;;
77324;SDS011;66387;53.440;10.390;2023-01-25T11:21:12;20.83;;;12.55;;
77324;SDS011;66387;53.440;10.390;2023-01-25T11:23:40;19.80;;;12.93;;
77324;SDS011;66387;53.440;10.390;2023-01-25T11:26:16;20.67;;;11.52;;
77324;SDS011;66387;53.440;10.390;2023-01-25T11:28:43;20.90;;;12.25;;
77324;SDS011;66387;53.440;10.390;2023-01-25T11:31:10;20.75;;;12.77;;
77324;SDS011;66387;53.440;10.390;2023-01-25T11:33:37;22.15;;;13.40;;
77324;SDS011;66387;53.440;10.390;2023-01-25T11:38:37;20.08;;;11.35;;
77324;SDS011;66387;53.440;10.390;2023-01-25T11:41:16;21.08;;;13.40;;
77324;SDS011;66387;53.440;10.390;2023-01-25T11:49:02;25.38;;;15.07;;
77324;SDS011;66387;53.440;10.390;2023-01-25T11:51:47;19.90;;;11.98;;
77324;SDS011;66387;53.440;10.390;2023-01-25T12:03:08;19.75;;;14.20;;
77324;SDS011;66387;53.440;10.390;2023-01-25T12:05:58;21.98;;;12.93;;
77324;SDS011;66387;53.440;10.390;2023-01-25T12:11:18;26.40;;;14.35;;
77324;SDS011;66387;53.440;10.390;2023-01-25T12:16:53;22.73;;;14.00;;
77324;SDS011;66387;53.440;10.390;2023-01-25T12:22:05;21.15;;;12.43;;
77324;SDS011;66387;53.440;10.390;2023-01-25T12:27:30;21.35;;;11.95;;
77324;SDS011;66387;53.440;10.390;2023-01-25T12:30:16;20.83;;;13.32;;
77324;SDS011;66387;53.440;10.390;2023-01-25T12:35:43;23.13;;;13.05;;
77324;SDS011;66387;53.440;10.390;2023-01-25T12:38:14;22.60;;;14.45;;
77324;SDS011;66387;53.440;10.390;2023-01-25T12:43:44;25.70;;;14.52;;
77324;SDS011;66387;53.440;10.390;2023-01-25T12:46:15;25.02;;;14.75;;
77324;SDS011;66387;53.440;10.390;2023-01-25T12:48:48;23.27;;;13.60;;
77324;SDS011;66387;53.440;10.390;2023-01-25T12:51:17;22.70;;;14.18;;
77324;SDS011;66387;53.440;10.390;2023-01-25T12:53:46;17.33;;;11.85;;
77324;SDS011;66387;53.440;10.390;2023-01-25T12:56:32;19.95;;;11.50;;
77324;SDS011;66387;53.440;10.390;2023-01-25T13:01:50;29.30;;;15.27;;
77324;SDS011;66387;53.440;10.390;2023-01-25T13:07:55;27.30;;;14.63;;
77324;SDS011;66387;53.440;10.390;2023-01-25T13:12:57;31.85;;;16.55;;
77324;SDS011;66387;53.440;10.390;2023-01-25T13:15:34;28.45;;;16.92;;
77324;SDS011;66387;53.440;10.390;2023-01-25T13:20:49;20.83;;;13.75;;
77324;SDS011;66387;53.440;10.390;2023-01-25T13:28:50;21.20;;;14.95;;
77324;SDS011;66387;53.440;10.390;2023-01-25T13:36:58;24.90;;;12.80;;
77324;SDS011;66387;53.440;10.390;2023-01-25T13:41:58;23.63;;;13.47;;
77324;SDS011;66387;53.440;10.390;2023-01-25T13:44:26;21.10;;;11.75;;
77324;SDS011;66387;53.440;10.390;2023-01-25T13:46:57;22.95;;;11.88;;
77324;SDS011;66387;53.440;10.390;2023-01-25T13:49:30;24.10;;;14.07;;
77324;SDS011;66387;53.440;10.390;2023-01-25T13:52:00;25.27;;;13.93;;
77324;SDS011;66387;53.440;10.390;2023-01-25T13:54:28;22.50;;;13.10;;
77324;SDS011;66387;53.440;10.390;2023-01-25T13:57:04;30.42;;;15.88;;
77324;SDS011;66387;53.440;10.390;2023-01-25T13:59:30;44.85;;;25.27;;
77324;SDS011;66387;53.440;10.390;2023-01-25T14:01:56;31.83;;;17.07;;
77324;SDS011;66387;53.440;10.390;2023-01-25T14:04:23;29.33;;;17.00;;
77324;SDS011;66387;53.440;10.390;2023-01-25T14:06:53;28.42;;;15.75;;
77324;SDS011;66387;53.440;10.390;2023-01-25T14:09:21;27.58;;;16.90;;
77324;SDS011;66387;53.440;10.390;2023-01-25T14:11:51;27.73;;;16.55;;
77324;SDS011;66387;53.440;10.390;2023-01-25T14:14:31;27.45;;;15.75;;
77324;SDS011;66387;53.440;10.390;2023-01-25T14:19:35;21.92;;;14.00;;
77324;SDS011;66387;53.440;10.390;2023-01-25T14:27:52;20.40;;;12.27;;
77324;SDS011;66387;53.440;10.390;2023-01-25T14:32:53;22.65;;;12.63;;
77324;SDS011;66387;53.440;10.390;2023-01-25T14:35:26;23.27;;;11.88;;
77324;SDS011;66387;53.440;10.390;2023-01-25T14:37:57;26.48;;;15.55;;
77324;SDS011;66387;53.440;10.390;2023-01-25T14:40:24;25.13;;;13.30;;
77324;SDS011;66387;53.440;10.390;2023-01-25T14:42:51;25.35;;;11.80;;
77324;SDS011;66387;53.440;10.390;2023-01-25T14:45:18;23.83;;;13.68;;
77324;SDS011;66387;53.440;10.390;2023-01-25T14:47:47;24.58;;;13.90;;
77324;SDS011;66387;53.440;10.390;2023-01-25T14:50:33;22.48;;;12.60;;
77324;SDS011;66387;53.440;10.390;2023-01-25T14:53:22;23.60;;;12.98;;
77324;SDS011;66387;53.440;10.390;2023-01-25T14:55:48;26.13;;;13.23;;
77324;SDS011;66387;53.440;10.390;2023-01-25T14:58:15;24.33;;;13.25;;
77324;SDS011;66387;53.440;10.390;2023-01-25T15:00:53;24.35;;;13.50;;
77324;SDS011;66387;53.440;10.390;2023-01-25T15:03:19;21.63;;;12.85;;
77324;SDS011;66387;53.440;10.390;2023-01-25T15:05:46;24.25;;;12.25;;
77324;SDS011;66387;53.440;10.390;2023-01-25T15:08:14;19.27;;;10.00;;
77324;SDS011;66387;53.440;10.390;2023-01-25T15:10:54;28.08;;;13.00;;
77324;SDS011;66387;53.440;10.390;2023-01-25T15:13:44;23.63;;;12.60;;
77324;SDS011;66387;53.440;10.390;2023-01-25T15:16:09;27.95;;;14.65;;
77324;SDS011;66387;53.440;10.390;2023-01-25T15:23:48;28.40;;;12.32;;
77324;SDS011;66387;53.440;10.390;2023-01-25T15:26:23;24.70;;;12.13;;
77324;SDS011;66387;53.440;10.390;2023-01-25T15:28:51;24.80;;;13.05;;
77324;SDS011;66387;53.440;10.390;2023-01-25T15:33:51;22.33;;;11.52;;
77324;SDS011;66387;53.440;10.390;2023-01-25T15:36:18;22.00;;;12.35;;
77324;SDS011;66387;53.440;10.390;2023-01-25T15:38:44;24.55;;;13.60;;
77324;SDS011;66387;53.440;10.390;2023-01-25T15:41:09;25.63;;;12.52;;
77324;SDS011;66387;53.440;10.390;2023-01-25T15:43:36;28.48;;;13.00;;
77324;SDS011;66387;53.440;10.390;2023-01-25T15:46:01;25.30;;;13.40;;
77324;SDS011;66387;53.440;10.390;2023-01-25T15:48:29;25.50;;;12.57;;
77324;SDS011;66387;53.440;10.390;2023-01-25T15:50:58;29.20;;;14.07;;
77324;SDS011;66387;53.440;10.390;2023-01-25T15:53:23;30.13;;;13.07;;
77324;SDS011;66387;53.440;10.390;2023-01-25T15:55:50;23.55;;;12.95;;
77324;SDS011;66387;53.440;10.390;2023-01-25T15:58:32;24.75;;;12.98;;
77324;SDS011;66387;53.440;10.390;2023-01-25T16:00:59;29.35;;;15.18;;
77324;SDS011;66387;53.440;10.390;2023-01-25T16:03:25;29.00;;;14.45;;
77324;SDS011;66387;53.440;10.390;2023-01-25T16:05:55;26.75;;;15.25;;
77324;SDS011;66387;53.440;10.390;2023-01-25T16:08:22;26.63;;;13.68;;
77324;SDS011;66387;53.440;10.390;2023-01-25T16:10:47;22.23;;;11.17;;
77324;SDS011;66387;53.440;10.390;2023-01-25T16:13:13;26.27;;;10.70;;